Time;durP1;ratioP1;P1;durP2;ratioP2;P2;SDS_P1;SDS_P2;PMS_P1;PMS_P2;Temp;Humidity;BMP_temperature;BMP_pressure;BME280_temperature;BME280_humidity;BME280_pressure;Samples;Min_cycle;Max_cycle;Signal;HPM_P1;HPM_P2
2022/12/31 00:26:32;;;;;;;3.70;0.70;;;11.80;99.90;;;;;;6336626;22;20022;-94
2022/12/31 00:29:02;;;;;;;4.22;0.68;;;11.90;99.90;;;;;;6288372;22;20398;-95
2022/12/31 00:31:54;;;;;;;3.90;0.85;;;11.80;99.90;;;;;;6289038;22;20014;-96
2022/12/31 08:38:49;;;;;;;0.63;0.40;;;10.80;99.90;;;;;;6356664;22;20459;-92
2022/12/31 09:05:25;;;;;;;0.63;0.30;;;11.00;99.90;;;;;;6369955;22;20018;-92
2022/12/31 09:08:14;;;;;;;1.60;0.45;;;11.00;99.90;;;;;;6344133;22;20478;-91
2022/12/31 09:11:33;;;;;;;0.70;0.30;;;11.10;99.90;;;;;;6344389;22;20015;-91
2022/12/31 09:14:27;;;;;;;1.10;0.50;;;11.20;99.90;;;;;;6370768;22;20025;-91
2022/12/31 09:17:13;;;;;;;0.90;0.45;;;11.20;99.90;;;;;;6344353;22;20010;-90
2022/12/31 09:19:57;;;;;;;2.42;0.70;;;11.30;99.90;;;;;;6323270;22;20019;-92
2022/12/31 09:22:23;;;;;;;1.20;0.60;;;11.40;99.90;;;;;;6318844;22;20014;-96
2022/12/31 09:24:49;;;;;;;1.60;0.70;;;11.50;99.90;;;;;;6343442;22;20014;-90
2022/12/31 09:27:15;;;;;;;1.80;0.75;;;11.50;99.90;;;;;;6319350;22;20021;-91
2022/12/31 09:30:02;;;;;;;3.37;0.80;;;11.60;99.90;;;;;;6345548;22;20021;-94
2022/12/31 09:32:44;;;;;;;1.65;0.80;;;11.70;99.90;;;;;;6344954;22;20022;-94
2022/12/31 09:53:36;;;;;;;1.92;0.63;;;12.20;99.90;;;;;;6365071;22;20023;-90
2022/12/31 09:56:58;;;;;;;1.50;0.70;;;12.20;99.90;;;;;;6343770;22;20019;-90
2022/12/31 09:59:38;;;;;;;3.00;1.10;;;12.30;99.90;;;;;;6344728;22;20046;-90
2022/12/31 10:02:34;;;;;;;1.85;0.82;;;12.40;99.90;;;;;;6343554;22;20022;-92
2022/12/31 10:05:30;;;;;;;2.10;0.88;;;12.50;99.90;;;;;;6346290;22;20022;-91
2022/12/31 10:08:14;;;;;;;1.40;0.60;;;12.50;99.90;;;;;;6343747;22;20018;-94
2022/12/31 10:10:50;;;;;;;1.48;0.40;;;12.50;99.90;;;;;;6344843;22;20071;-94
2022/12/31 10:13:45;;;;;;;1.08;0.50;;;12.60;99.90;;;;;;6344698;22;20089;-90
2022/12/31 10:16:53;;;;;;;2.03;0.60;;;12.60;99.90;;;;;;6373526;22;20462;-94
2022/12/31 10:19:28;;;;;;;1.77;0.80;;;12.70;99.90;;;;;;6345420;22;20044;-92
2022/12/31 10:22:18;;;;;;;1.35;0.55;;;12.80;99.90;;;;;;6345500;22;20026;-92
2022/12/31 10:27:39;;;;;;;1.75;0.50;;;12.90;99.90;;;;;;6336729;22;20448;-90
2022/12/31 10:31:06;;;;;;;1.23;0.32;;;12.90;99.90;;;;;;6313619;22;20019;-91
2022/12/31 10:33:53;;;;;;;0.68;0.40;;;13.00;99.90;;;;;;6134808;23;20020;-89
2022/12/31 10:42:06;;;;;;;1.15;0.30;;;13.20;99.90;;;;;;6371104;22;20040;-92
2022/12/31 10:48:01;;;;;;;0.80;0.30;;;13.30;99.90;;;;;;6367473;22;20026;-91
2022/12/31 10:51:01;;;;;;;3.03;0.38;;;13.30;99.90;;;;;;6347327;22;20018;-95
2022/12/31 10:53:58;;;;;;;0.95;0.30;;;13.30;99.90;;;;;;6350580;22;20477;-96
2022/12/31 10:56:55;;;;;;;3.65;0.50;;;13.40;99.90;;;;;;6349738;22;20160;-95
2022/12/31 10:59:39;;;;;;;3.05;0.47;;;13.40;99.90;;;;;;6349929;22;20018;-96
2022/12/31 11:02:27;;;;;;;4.25;0.47;;;13.50;99.90;;;;;;6351203;22;20018;-94
2022/12/31 11:05:34;;;;;;;2.95;0.40;;;13.50;99.90;;;;;;6350681;22;20014;-95
2022/12/31 11:13:33;;;;;;;4.60;1.85;;;13.50;99.90;;;;;;6362852;22;20022;-94
2022/12/31 11:16:27;;;;;;;1.73;0.40;;;13.50;99.90;;;;;;6350257;22;20018;-95
2022/12/31 11:19:40;;;;;;;3.08;1.27;;;13.50;99.90;;;;;;6348402;22;20015;-95
2022/12/31 11:33:47;;;;;;;3.03;0.35;;;13.60;99.90;;;;;;6353662;22;20026;-93
2022/12/31 11:41:34;;;;;;;6.88;0.50;;;13.70;99.90;;;;;;6336173;22;20052;-95
2022/12/31 11:44:57;;;;;;;5.68;0.98;;;13.70;99.90;;;;;;6288411;22;20019;-91
2022/12/31 11:47:41;;;;;;;3.83;1.10;;;13.70;99.90;;;;;;6113526;23;20439;-91
2022/12/31 11:50:54;;;;;;;5.53;1.00;;;13.70;99.90;;;;;;6298361;22;20068;-89
2022/12/31 11:53:56;;;;;;;2.17;0.63;;;13.70;99.90;;;;;;6167424;23;20389;-93
2022/12/31 11:56:31;;;;;;;3.05;1.00;;;13.70;99.90;;;;;;6166121;23;20017;-93
2022/12/31 11:59:00;;;;;;;4.60;1.60;;;13.70;99.90;;;;;;6263180;22;20348;-91
2022/12/31 12:01:30;;;;;;;5.45;1.20;;;13.70;99.90;;;;;;6286156;22;20325;-89
2022/12/31 12:03:56;;;;;;;4.97;1.10;;;13.70;99.90;;;;;;6290785;22;20022;-93
2022/12/31 12:06:32;;;;;;;1.95;0.57;;;13.70;99.90;;;;;;6288485;22;20011;-95
2022/12/31 12:11:37;;;;;;;4.43;0.68;;;13.70;99.90;;;;;;6337205;22;20447;-89
2022/12/31 12:14:31;;;;;;;2.85;0.80;;;13.70;99.90;;;;;;6262556;22;20515;-91
2022/12/31 12:27:25;;;;;;;3.33;0.50;;;13.70;99.90;;;;;;6345699;22;20067;-90
2022/12/31 12:30:00;;;;;;;5.82;0.60;;;13.60;99.90;;;;;;6344361;22;20025;-88
2022/12/31 12:32:30;;;;;;;4.45;0.70;;;13.60;99.90;;;;;;6347506;22;20015;-91
2022/12/31 12:35:26;;;;;;;3.93;0.60;;;13.70;99.90;;;;;;6316391;22;20070;-91
2022/12/31 12:38:35;;;;;;;3.90;0.60;;;13.70;99.90;;;;;;6343732;22;20248;-90
2022/12/31 12:41:26;;;;;;;4.60;0.70;;;13.70;99.90;;;;;;6343525;22;20317;-88
2022/12/31 12:44:14;;;;;;;3.10;0.52;;;13.70;99.90;;;;;;6344919;22;20011;-88
2022/12/31 12:46:48;;;;;;;5.03;1.20;;;13.70;99.90;;;;;;6370403;22;20071;-92
2022/12/31 12:49:25;;;;;;;4.20;0.98;;;13.70;99.90;;;;;;6370191;22;20042;-88
2022/12/31 12:52:24;;;;;;;;;;;13.70;99.90;;;;;;6371389;22;20057;-92
2022/12/31 12:55:48;;;;;;;4.05;0.90;;;13.70;99.90;;;;;;6344622;22;19914;-90
2022/12/31 12:58:25;;;;;;;3.28;0.88;;;13.70;99.90;;;;;;6343437;22;20018;-92
2022/12/31 13:01:05;;;;;;;4.25;0.90;;;13.70;99.90;;;;;;6343576;22;20455;-89
2022/12/31 13:03:52;;;;;;;3.90;0.73;;;13.60;99.90;;;;;;6343582;22;20508;-90
2022/12/31 13:06:35;;;;;;;4.97;0.70;;;13.60;99.90;;;;;;6343496;22;20033;-91
2022/12/31 13:09:24;;;;;;;3.08;1.20;;;13.60;99.90;;;;;;6344140;22;20018;-92
2022/12/31 13:17:31;;;;;;;5.30;1.00;;;13.60;99.90;;;;;;6336898;22;20108;-96
2022/12/31 13:20:09;;;;;;;3.20;0.75;;;13.60;99.90;;;;;;6286471;22;20021;-88
2022/12/31 13:27:49;;;;;;;3.15;0.70;;;13.60;99.90;;;;;;6342551;22;20014;-87
2022/12/31 13:30:24;;;;;;;4.57;1.05;;;13.60;99.90;;;;;;6369806;22;20014;-93
2022/12/31 13:33:06;;;;;;;7.82;2.00;;;13.60;99.90;;;;;;6345047;22;20017;-90
2022/12/31 13:35:53;;;;;;;8.95;3.63;;;13.60;99.90;;;;;;6344604;22;20018;-93
2022/12/31 13:38:44;;;;;;;5.25;1.42;;;13.60;99.90;;;;;;6370383;22;20018;-91
2022/12/31 13:41:41;;;;;;;4.95;1.17;;;13.60;99.90;;;;;;6346150;22;20071;-90
2022/12/31 13:44:16;;;;;;;5.65;1.08;;;13.50;99.90;;;;;;6369919;22;20097;-91
2022/12/31 13:47:18;;;;;;;4.30;0.77;;;13.50;99.90;;;;;;6343667;22;20089;-90
2022/12/31 13:55:20;;;;;;;3.03;0.95;;;13.30;99.90;;;;;;6359962;22;20075;-90
2022/12/31 13:58:08;;;;;;;3.92;0.75;;;13.20;99.90;;;;;;6316844;22;20058;-91
2022/12/31 14:01:18;;;;;;;4.30;0.88;;;13.20;99.90;;;;;;6343480;22;20018;-89
2022/12/31 14:04:06;;;;;;;6.05;1.08;;;13.10;99.90;;;;;;6301492;22;20011;-92
2022/12/31 14:06:59;;;;;;;5.38;1.20;;;13.00;99.90;;;;;;6317093;22;20014;-93
2022/12/31 14:09:41;;;;;;;3.35;0.82;;;13.00;99.90;;;;;;6318284;22;20435;-90
2022/12/31 14:16:12;;;;;;;2.70;0.80;;;13.00;99.90;;;;;;6189046;23;20027;-94
2022/12/31 14:18:56;;;;;;;2.92;1.13;;;12.90;99.90;;;;;;6317692;22;20336;-93
2022/12/31 14:21:38;;;;;;;1.65;0.60;;;12.90;99.90;;;;;;6317252;22;20101;-90
2022/12/31 14:24:25;;;;;;;10.00;3.42;;;12.90;99.90;;;;;;6343594;22;20015;-92
2022/12/31 14:26:56;;;;;;;19.20;7.85;;;12.90;99.90;;;;;;6316345;22;20052;-90
2022/12/31 15:05:10;;;;;;;3.38;1.20;;;12.90;99.90;;;;;;6368990;22;20435;-92
2022/12/31 15:07:45;;;;;;;2.40;1.02;;;12.90;99.90;;;;;;6315410;22;20030;-92
2022/12/31 15:10:30;;;;;;;2.92;1.15;;;12.90;99.90;;;;;;6343174;22;20011;-92
2022/12/31 15:23:38;;;;;;;2.72;0.75;;;12.80;99.90;;;;;;6338233;22;20056;-91
2022/12/31 15:26:07;;;;;;;1.55;0.63;;;12.70;99.90;;;;;;6310354;22;20474;-92
2022/12/31 15:28:38;;;;;;;1.40;0.60;;;12.70;99.90;;;;;;6283869;22;20448;-90
2022/12/31 15:31:10;;;;;;;1.05;0.38;;;12.60;99.90;;;;;;6283575;22;20014;-91
2022/12/31 15:33:39;;;;;;;3.85;1.45;;;12.60;99.90;;;;;;6284865;22;20010;-94
2022/12/31 15:36:37;;;;;;;1.83;0.65;;;12.60;99.90;;;;;;6285574;22;20015;-92
2022/12/31 15:39:11;;;;;;;1.70;0.75;;;12.60;99.90;;;;;;6286233;22;20037;-93
2022/12/31 15:41:45;;;;;;;2.38;0.63;;;12.50;99.90;;;;;;6285750;22;20448;-92
2022/12/31 15:44:48;;;;;;;1.98;0.80;;;12.50;99.90;;;;;;6285020;22;20067;-92
2022/12/31 15:47:55;;;;;;;2.88;1.10;;;12.50;99.90;;;;;;6237704;22;20027;-92
2022/12/31 15:50:23;;;;;;;3.25;1.10;;;12.50;99.90;;;;;;6285747;22;20348;-94
2022/12/31 15:52:56;;;;;;;2.80;0.82;;;12.50;99.90;;;;;;6285446;22;20084;-92
2022/12/31 15:55:31;;;;;;;2.15;0.75;;;12.40;99.90;;;;;;6286913;22;20025;-93
2022/12/31 15:58:04;;;;;;;2.13;0.60;;;12.40;99.90;;;;;;6288000;22;20021;-94
2022/12/31 16:00:46;;;;;;;2.00;0.80;;;12.40;99.90;;;;;;6290549;22;20018;-96
2022/12/31 16:03:22;;;;;;;2.83;1.30;;;12.40;99.90;;;;;;6288579;22;20015;-95
2022/12/31 16:05:48;;;;;;;4.47;1.70;;;12.40;99.90;;;;;;6288314;22;20069;-94
2022/12/31 16:08:20;;;;;;;3.70;1.42;;;12.40;99.90;;;;;;6288330;22;20535;-91
2022/12/31 16:10:46;;;;;;;4.32;1.77;;;12.40;99.90;;;;;;6289024;22;20050;-95
2022/12/31 16:23:34;;;;;;;4.00;1.30;;;12.50;99.90;;;;;;6361549;22;20037;-92
2022/12/31 16:26:00;;;;;;;;;;;12.60;99.90;;;;;;6345417;22;20167;-92
2022/12/31 16:28:31;;;;;;;5.72;2.13;;;12.60;99.90;;;;;;6322316;22;19944;-95
2022/12/31 16:31:17;;;;;;;3.80;1.73;;;12.70;99.90;;;;;;6348593;22;20014;-93
2022/12/31 16:33:43;;;;;;;5.90;1.95;;;12.70;99.90;;;;;;6346493;22;20026;-92
2022/12/31 16:36:20;;;;;;;;;;;12.70;99.90;;;;;;6347905;22;20039;-94
2022/12/31 16:38:47;;;;;;;5.78;1.90;;;12.80;99.90;;;;;;6347617;22;19922;-94
2022/12/31 16:41:42;;;;;;;5.57;1.60;;;12.80;99.90;;;;;;6348238;22;20022;-95
2022/12/31 16:44:57;;;;;;;4.18;1.88;;;12.80;99.90;;;;;;6323309;22;20022;-95
2022/12/31 16:47:34;;;;;;;6.95;2.70;;;12.80;99.90;;;;;;6321032;22;20036;-94
2022/12/31 17:29:47;;;;;;;6.07;2.03;;;13.00;99.90;;;;;;6337186;22;20023;-95
2022/12/31 17:32:35;;;;;;;6.35;2.47;;;13.00;99.90;;;;;;6262581;22;20172;-93
2022/12/31 17:35:30;;;;;;;5.93;2.92;;;13.00;99.90;;;;;;6292215;22;20015;-96
2022/12/31 17:38:21;;;;;;;7.95;2.90;;;13.00;99.90;;;;;;6289627;22;20014;-95
2022/12/31 17:41:14;;;;;;;6.05;2.65;;;13.00;99.90;;;;;;6291586;22;20019;-96
2022/12/31 17:43:43;;;;;;;8.52;3.58;;;13.10;99.90;;;;;;6258183;22;20019;-93
2022/12/31 17:46:18;;;;;;;7.32;3.10;;;13.10;99.90;;;;;;6290413;22;20014;-95
2022/12/31 17:49:05;;;;;;;7.68;3.28;;;13.10;99.90;;;;;;6288939;22;20084;-96
2022/12/31 17:51:31;;;;;;;8.32;3.33;;;13.10;99.90;;;;;;6289954;22;20011;-91
2022/12/31 17:53:59;;;;;;;7.93;3.67;;;13.10;99.90;;;;;;6287920;22;20054;-94
2022/12/31 17:56:24;;;;;;;7.15;3.33;;;13.10;99.90;;;;;;6289286;22;20097;-91
2022/12/31 17:58:52;;;;;;;12.70;4.50;;;13.10;99.90;;;;;;6292552;22;20038;-96
2022/12/31 18:01:20;;;;;;;11.40;5.20;;;13.10;99.90;;;;;;6289017;22;19999;-93
2022/12/31 18:03:47;;;;;;;9.32;4.95;;;13.10;99.90;;;;;;6286825;22;20019;-94
2022/12/31 18:06:13;;;;;;;;;;;13.10;99.90;;;;;;6286968;22;20017;-93
2022/12/31 18:08:39;;;;;;;11.77;5.82;;;13.10;99.90;;;;;;6286741;22;19940;-92
2022/12/31 18:11:06;;;;;;;11.65;5.82;;;13.10;99.90;;;;;;6287502;22;20011;-94
2022/12/31 18:13:41;;;;;;;12.10;5.38;;;13.10;99.90;;;;;;6287126;22;20015;-95
2022/12/31 18:16:09;;;;;;;9.82;4.78;;;13.10;99.90;;;;;;6287097;22;20019;-93
2022/12/31 18:18:38;;;;;;;10.02;4.93;;;13.20;99.90;;;;;;6261560;22;20011;-94
2022/12/31 18:21:33;;;;;;;10.45;4.75;;;13.20;99.90;;;;;;6262771;22;20015;-93
2022/12/31 18:24:05;;;;;;;10.68;4.75;;;13.20;99.90;;;;;;6290241;22;20050;-94
2022/12/31 18:26:33;;;;;;;10.70;6.03;;;13.20;99.90;;;;;;6293087;22;20448;-95
2022/12/31 18:37:39;;;;;;;16.70;7.55;;;13.20;99.90;;;;;;6361852;22;20022;-94
2022/12/31 18:40:06;;;;;;;14.27;6.32;;;13.20;99.90;;;;;;6350760;22;20018;-94
2022/12/31 18:42:37;;;;;;;14.00;6.90;;;13.20;99.90;;;;;;6348327;22;20430;-93
2022/12/31 18:45:04;;;;;;;13.10;6.80;;;13.20;99.90;;;;;;6322579;22;20075;-94
2022/12/31 18:47:30;;;;;;;14.85;7.38;;;13.20;99.90;;;;;;6353697;22;20011;-93
2022/12/31 18:49:59;;;;;;;16.25;9.10;;;13.20;99.90;;;;;;6327944;22;20029;-94
2022/12/31 20:41:47;;;;;;;9.10;4.10;;;14.20;99.90;;;;;;6332485;22;20026;-94
2022/12/31 20:44:19;;;;;;;10.18;4.10;;;14.20;99.90;;;;;;6314889;22;20102;-93
2022/12/31 20:46:45;;;;;;;7.28;3.78;;;14.20;99.90;;;;;;6290127;22;20010;-96
2022/12/31 20:49:13;;;;;;;8.40;3.45;;;14.20;99.90;;;;;;6291511;22;20019;-95
2022/12/31 20:51:45;;;;;;;7.15;2.92;;;14.20;99.90;;;;;;6263556;22;20021;-95
2022/12/31 20:54:21;;;;;;;7.97;3.35;;;14.20;99.90;;;;;;6290203;22;20039;-93
2022/12/31 20:56:50;;;;;;;10.90;3.05;;;14.20;99.90;;;;;;6290352;22;20042;-93
2022/12/31 20:59:15;;;;;;;9.68;3.80;;;14.20;99.90;;;;;;6267684;22;20017;-95
2022/12/31 21:01:41;;;;;;;7.60;3.35;;;14.30;99.90;;;;;;6265226;22;20019;-96
2022/12/31 21:04:07;;;;;;;8.52;3.67;;;14.30;99.90;;;;;;6264228;22;20023;-94
2022/12/31 21:06:39;;;;;;;7.85;2.95;;;14.20;99.90;;;;;;6265460;22;20015;-95
2022/12/31 21:09:09;;;;;;;7.75;3.08;;;14.30;99.90;;;;;;6289556;22;20019;-96
2022/12/31 21:19:33;;;;;;;10.57;3.08;;;14.40;99.90;;;;;;6338653;22;20029;-92
2022/12/31 21:21:59;;;;;;;6.88;2.60;;;14.50;99.90;;;;;;6287722;22;20019;-96
2022/12/31 21:24:29;;;;;;;6.00;2.77;;;14.50;99.90;;;;;;6261631;22;20348;-93
2022/12/31 21:26:55;;;;;;;8.20;3.00;;;14.40;99.90;;;;;;6262458;22;20240;-93
2022/12/31 21:29:23;;;;;;;7.75;2.95;;;14.40;99.90;;;;;;6287468;22;20455;-93
2022/12/31 21:31:48;;;;;;;7.10;2.60;;;14.40;99.90;;;;;;6262027;22;20526;-94
2022/12/31 21:34:14;;;;;;;8.05;3.28;;;14.40;99.90;;;;;;6289397;22;20015;-92
2022/12/31 21:36:43;;;;;;;7.25;2.70;;;14.40;99.90;;;;;;6288701;22;20113;-94
2022/12/31 21:39:18;;;;;;;9.70;3.70;;;14.40;99.90;;;;;;6290565;22;20513;-94
2022/12/31 21:41:50;;;;;;;6.75;2.50;;;14.40;99.90;;;;;;6262041;22;20019;-93
2022/12/31 21:44:25;;;;;;;11.10;2.97;;;14.30;99.90;;;;;;6288910;22;20019;-94
2022/12/31 21:49:55;;;;;;;9.88;3.38;;;14.30;99.90;;;;;;6313001;22;20448;-94
2022/12/31 21:52:26;;;;;;;8.88;3.08;;;14.30;99.90;;;;;;6286861;22;20018;-89
2022/12/31 21:57:38;;;;;;;8.05;2.83;;;14.30;99.90;;;;;;6312975;22;20019;-91
2022/12/31 22:05:34;;;;;;;7.13;2.90;;;14.30;99.90;;;;;;6288780;22;20015;-93
2022/12/31 22:08:04;;;;;;;6.95;3.33;;;14.20;99.90;;;;;;6286918;22;20019;-93
2022/12/31 22:10:32;;;;;;;11.00;3.80;;;14.20;99.90;;;;;;6288165;22;20093;-93
2022/12/31 22:12:58;;;;;;;10.82;4.75;;;14.20;99.90;;;;;;6288211;22;20015;-93
2022/12/31 22:15:24;;;;;;;9.15;4.30;;;14.20;99.90;;;;;;6261977;22;20011;-91
2022/12/31 22:17:51;;;;;;;8.98;3.10;;;14.20;99.90;;;;;;6289311;22;20044;-91
2022/12/31 22:20:20;;;;;;;10.13;3.40;;;14.20;99.90;;;;;;6299160;22;20019;-94
2022/12/31 22:22:47;;;;;;;8.80;3.60;;;14.20;99.90;;;;;;6338404;22;20045;-93
2022/12/31 22:25:13;;;;;;;7.75;3.20;;;14.20;99.90;;;;;;6312964;22;20022;-91
2022/12/31 22:27:38;;;;;;;8.68;2.88;;;14.20;99.90;;;;;;6287224;22;20007;-93
2022/12/31 22:30:16;;;;;;;7.50;2.60;;;14.20;99.90;;;;;;6288569;22;20015;-92
2022/12/31 22:32:42;;;;;;;7.97;2.60;;;14.30;99.90;;;;;;6288024;22;20574;-92
2022/12/31 22:35:08;;;;;;;8.38;2.55;;;14.30;99.90;;;;;;6288711;22;20014;-93
2022/12/31 22:37:34;;;;;;;7.35;3.25;;;14.30;99.90;;;;;;6286665;22;20071;-93
2022/12/31 22:39:59;;;;;;;9.02;3.03;;;14.40;99.90;;;;;;6314220;22;20058;-92
2022/12/31 22:42:25;;;;;;;6.45;2.33;;;14.40;99.90;;;;;;6315462;22;20097;-91
2022/12/31 22:44:51;;;;;;;5.75;2.58;;;14.40;99.90;;;;;;6315024;22;20050;-94
2022/12/31 22:47:17;;;;;;;7.03;2.70;;;14.40;99.90;;;;;;6315610;22;20084;-94
2022/12/31 22:49:48;;;;;;;8.40;3.00;;;14.40;99.90;;;;;;6316360;22;20245;-95
2022/12/31 22:52:13;;;;;;;7.03;2.58;;;14.40;99.90;;;;;;6291468;22;20348;-92
2022/12/31 22:54:39;;;;;;;8.20;2.65;;;14.40;99.90;;;;;;6290772;22;20316;-96
2022/12/31 22:57:05;;;;;;;9.95;3.83;;;14.40;99.90;;;;;;6342920;22;20053;-94
2022/12/31 22:59:34;;;;;;;8.77;3.33;;;14.40;99.90;;;;;;6292110;22;20015;-94
2022/12/31 23:02:00;;;;;;;6.05;2.92;;;14.40;99.90;;;;;;6316925;22;20010;-93
2022/12/31 23:04:26;;;;;;;8.20;3.53;;;14.40;99.90;;;;;;6316992;22;20022;-96
2022/12/31 23:06:52;;;;;;;16.40;9.45;;;14.40;99.90;;;;;;6316596;22;20011;-94
2022/12/31 23:12:05;;;;;;;23.08;13.18;;;14.40;99.90;;;;;;6341547;22;20106;-94
2022/12/31 23:23:10;;;;;;;28.30;18.55;;;14.40;99.90;;;;;;6343870;22;20019;-95
2022/12/31 23:25:43;;;;;;;30.88;18.40;;;14.40;99.90;;;;;;6318796;22;20015;-94
2022/12/31 23:28:15;;;;;;;31.25;21.40;;;14.40;99.90;;;;;;6311053;22;20026;-95
2022/12/31 23:30:41;;;;;;;32.30;18.98;;;14.40;99.90;;;;;;6317440;22;20044;-94
2022/12/31 23:33:18;;;;;;;;;;;14.40;99.90;;;;;;6320355;22;20030;-94
2022/12/31 23:35:44;;;;;;;28.65;18.15;;;14.40;99.90;;;;;;6292047;22;19922;-94
2022/12/31 23:38:10;;;;;;;29.63;18.17;;;14.40;99.90;;;;;;6293977;22;20444;-94
2022/12/31 23:40:36;;;;;;;23.48;13.43;;;14.30;99.90;;;;;;6318640;22;20019;-94
2022/12/31 23:43:06;;;;;;;26.90;15.57;;;14.40;99.90;;;;;;6317088;22;20015;-92
2022/12/31 23:45:33;;;;;;;23.33;13.00;;;14.40;99.90;;;;;;6317117;22;20276;-91
2022/12/31 23:47:59;;;;;;;;;;;14.40;99.90;;;;;;6317991;22;20021;-96
2022/12/31 23:50:25;;;;;;;15.77;8.10;;;14.30;99.90;;;;;;6317359;22;19914;-95
2022/12/31 23:52:59;;;;;;;14.90;8.82;;;14.40;99.90;;;;;;6318412;22;20053;-96
